createdAt,value
2018-12-15T02:53:53.687Z,1.50
2018-12-15T03:00:00.764Z,1.50
2018-12-15T03:09:41.415Z,1.50
2018-12-15T03:12:21.834Z,1.50
2018-12-15T03:14:59.175Z,1.50
2018-12-15T03:17:40.538Z,1.50
2018-12-15T03:20:17.873Z,1.50
2018-12-15T03:23:21.412Z,1.50
2018-12-15T03:26:03.493Z,1.50
2018-12-15T03:28:41.738Z,1.50
2018-12-15T03:34:56.632Z,1.50
2018-12-15T03:37:33.848Z,1.60
2018-12-15T03:40:11.735Z,1.60
2018-12-15T03:42:54.266Z,1.60
2018-12-15T03:45:33.622Z,1.60
2018-12-15T03:48:12.445Z,1.60
2018-12-15T04:22:55.142Z,1.50
2018-12-15T04:25:58.935Z,1.50
2018-12-15T04:35:40.316Z,1.50
2018-12-15T04:38:26.505Z,1.50
2018-12-15T04:41:18.298Z,1.50
2018-12-15T04:44:01.242Z,1.60
2018-12-15T04:46:38.971Z,1.50
2018-12-15T04:49:31.065Z,1.50
2018-12-15T04:52:20.872Z,1.50
2018-12-15T04:55:04.231Z,1.50
2018-12-15T05:15:32.446Z,1.50
2018-12-15T09:08:35.393Z,2.00
2018-12-15T11:21:59.924Z,3.10
2018-12-15T11:24:48.345Z,3.10
2018-12-15T11:27:30.099Z,3.20
2018-12-15T11:30:09.285Z,3.20
2018-12-15T11:32:47.996Z,3.20
2018-12-15T11:35:22.805Z,3.20
2018-12-15T11:38:01.672Z,3.20
2018-12-15T11:40:39.954Z,3.20
2018-12-15T11:43:14.177Z,3.30
2018-12-15T11:45:52.622Z,3.30
2018-12-15T11:48:32.277Z,3.30
2018-12-15T11:51:12.812Z,3.30
2018-12-15T11:57:16.934Z,3.30
2018-12-15T11:59:56.402Z,3.40
2018-12-15T12:02:41.458Z,3.40
2018-12-15T12:05:22.871Z,3.40
2018-12-15T12:08:01.098Z,3.40
2018-12-15T12:10:39.585Z,3.50
2018-12-15T12:13:18.477Z,3.50
2018-12-15T12:15:56.736Z,3.40
2018-12-15T12:18:35.528Z,3.50
2018-12-15T12:21:14.743Z,3.50
2018-12-15T12:34:04.923Z,3.50
2018-12-15T12:36:42.520Z,3.50
2018-12-15T12:39:20.563Z,3.50
2018-12-15T12:45:28.532Z,3.50
2018-12-15T12:48:09.173Z,3.40
2018-12-15T12:50:50.571Z,3.40
2018-12-15T12:53:28.289Z,3.40
2018-12-15T12:56:07.484Z,3.40
2018-12-15T12:58:46.432Z,3.40
2018-12-15T13:01:29.477Z,3.40
2018-12-15T13:04:06.921Z,3.40
2018-12-15T13:06:46.344Z,3.40
2018-12-15T13:12:51.921Z,3.30
2018-12-15T13:15:34.132Z,3.20
2018-12-15T13:18:11.820Z,3.20
2018-12-15T13:20:49.956Z,3.20
2018-12-15T13:23:28.752Z,3.20
2018-12-15T13:26:07.403Z,3.20
2018-12-15T13:28:46.826Z,3.10
2018-12-15T13:31:24.855Z,3.10
2018-12-15T13:34:03.853Z,3.10
2018-12-15T13:52:09.281Z,3.20
2018-12-15T13:58:39.363Z,3.20
2018-12-15T14:01:18.341Z,3.10
2018-12-15T14:03:55.024Z,3.10
2018-12-15T15:19:49.233Z,1.80
2018-12-15T15:30:09.575Z,1.60
2018-12-15T15:32:51.784Z,1.50
2018-12-15T15:35:39.878Z,1.50
2018-12-15T15:38:18.405Z,1.40
2018-12-15T15:41:01.172Z,1.40
2018-12-15T15:43:39.811Z,1.30
2018-12-15T15:46:20.264Z,1.30
2018-12-15T15:49:00.146Z,1.20
2018-12-15T15:51:43.290Z,1.20
2018-12-15T15:54:23.894Z,1.10
2018-12-15T15:57:02.141Z,1.00
2018-12-15T15:59:42.081Z,0.90
2018-12-15T16:02:16.794Z,0.80
2018-12-15T16:08:17.551Z,0.70
2018-12-15T16:10:58.681Z,0.70
2018-12-15T16:13:38.212Z,0.70
2018-12-15T16:19:46.710Z,0.70
2018-12-15T16:22:27.682Z,0.60
2018-12-15T16:28:04.456Z,0.40
2018-12-15T16:51:15.402Z,0.00
2018-12-15T16:53:58.353Z,0.00
2018-12-15T16:56:37.376Z,0.00
2018-12-15T16:59:16.386Z,-0.10
2018-12-15T17:01:54.340Z,0.00
2018-12-15T17:08:55.712Z,-0.10
2018-12-15T17:11:37.747Z,-0.10
2018-12-15T17:17:45.644Z,-0.20
2018-12-15T17:20:25.480Z,-0.20
2018-12-15T17:23:33.055Z,-0.20
2018-12-15T17:26:14.132Z,-0.20
2018-12-15T17:28:52.976Z,-0.20
2018-12-15T17:31:31.435Z,-0.20
2018-12-15T17:34:10.403Z,-0.20
2018-12-15T17:36:49.295Z,-0.20
2018-12-15T17:39:40.442Z,-0.10
2018-12-15T17:42:21.163Z,-0.10
2018-12-15T17:44:59.495Z,-0.10
2018-12-15T17:47:42.300Z,-0.10
2018-12-15T17:50:28.306Z,-0.10
2018-12-15T18:07:04.898Z,-0.10
2018-12-15T18:09:45.238Z,-0.10
2018-12-15T18:12:23.507Z,-0.10
2018-12-15T18:15:01.845Z,-0.10
2018-12-15T18:17:44.373Z,0.00
2018-12-15T18:20:24.214Z,0.00
2018-12-15T18:23:03.154Z,0.00
2018-12-15T18:25:45.690Z,0.00
2018-12-15T18:28:23.171Z,0.00
2018-12-15T18:31:04.505Z,0.00
2018-12-15T18:33:44.725Z,0.00
2018-12-15T18:36:23.449Z,0.00
2018-12-15T18:39:10.077Z,0.00
2018-12-15T18:41:54.608Z,0.00
2018-12-15T18:44:36.315Z,0.10
2018-12-15T18:47:15.120Z,0.10
2018-12-15T18:49:53.093Z,0.10
2018-12-15T18:52:30.926Z,0.10
2018-12-15T18:55:08.486Z,0.00
2018-12-15T18:57:46.084Z,0.00
2018-12-15T19:00:50.439Z,0.00
2018-12-15T19:03:29.523Z,-0.10
2018-12-15T19:06:10.235Z,-0.10
2018-12-15T19:08:47.437Z,-0.10
2018-12-15T19:11:25.144Z,-0.10
2018-12-15T19:14:11.513Z,-0.20
2018-12-15T19:16:51.649Z,-0.20
2018-12-15T19:19:34.377Z,-0.20
2018-12-15T19:22:13.607Z,-0.30
2018-12-15T19:24:54.257Z,-0.30
2018-12-15T19:27:35.533Z,-0.30
2018-12-15T19:30:16.627Z,-0.40
2018-12-15T19:32:59.174Z,-0.40
2018-12-15T19:35:37.847Z,-0.40
2018-12-15T19:38:19.281Z,-0.40
2018-12-15T19:40:58.252Z,-0.50
2018-12-15T19:43:48.806Z,-0.50
2018-12-15T19:46:28.491Z,-0.60
2018-12-15T19:49:08.427Z,-0.60
2018-12-15T19:51:56.389Z,-0.70
2018-12-15T19:54:40.983Z,-0.70
2018-12-15T19:57:18.347Z,-0.80
2018-12-15T19:59:56.919Z,-0.80
2018-12-15T20:02:43.744Z,-0.90
2018-12-15T20:05:21.040Z,-0.90
2018-12-15T20:08:00.893Z,-0.90
2018-12-15T20:10:41.187Z,-1.00
2018-12-15T20:13:19.632Z,-1.00
2018-12-15T20:15:57.346Z,-1.00
2018-12-15T20:18:37.017Z,-1.00
2018-12-15T20:45:44.197Z,-1.20
2018-12-15T20:48:31.037Z,-1.20
2018-12-15T20:51:23.467Z,-1.20
2018-12-15T20:54:10.528Z,-1.20
2018-12-15T20:56:54.800Z,-1.20
2018-12-15T20:59:35.742Z,-1.10
2018-12-15T21:02:23.379Z,-1.10
2018-12-15T21:05:13.513Z,-1.10
2018-12-15T21:08:03.554Z,-1.10
2018-12-15T21:10:50.975Z,-1.10
2018-12-15T21:13:36.182Z,-1.10
2018-12-15T21:16:22.353Z,-1.10
2018-12-15T21:19:06.952Z,-1.10
2018-12-15T21:21:51.300Z,-1.10
2018-12-15T21:24:38.247Z,-1.20
2018-12-15T21:27:20.315Z,-1.20
2018-12-15T21:30:02.993Z,-1.20
2018-12-15T21:32:48.568Z,-1.20
2018-12-15T21:35:29.725Z,-1.20
2018-12-15T21:38:20.906Z,-1.20
2018-12-15T21:41:24.384Z,-1.20
2018-12-15T21:44:08.903Z,-1.20
2018-12-15T21:47:00.852Z,-1.20
2018-12-15T21:49:46.931Z,-1.20
2018-12-15T21:52:55.671Z,-1.20
2018-12-15T21:55:44.525Z,-1.20
2018-12-15T21:58:27.520Z,-1.10
2018-12-15T22:01:13.656Z,-1.10
2018-12-15T22:04:08.449Z,-1.10
2018-12-15T22:07:04.275Z,-1.10
2018-12-15T22:09:48.922Z,-1.10
2018-12-15T22:12:33.438Z,-1.10
2018-12-15T22:15:24.055Z,-1.00
2018-12-15T22:18:20.276Z,-1.00
2018-12-15T22:21:06.196Z,-1.00
2018-12-15T22:23:50.708Z,-1.00
2018-12-15T22:26:47.917Z,-1.00
2018-12-15T22:29:31.443Z,-1.00
2018-12-15T22:32:12.272Z,-0.90
2018-12-15T22:34:52.679Z,-0.90
2018-12-15T22:37:38.631Z,-0.90
2018-12-15T22:40:27.034Z,-0.80
2018-12-15T22:43:11.050Z,-0.80
2018-12-15T22:45:52.683Z,-0.70
2018-12-15T22:48:37.993Z,-0.60
2018-12-15T22:51:19.087Z,-0.60
2018-12-15T22:54:07.573Z,-0.60
2018-12-15T22:56:50.912Z,-0.60
2018-12-15T22:59:32.456Z,-0.60
2018-12-15T23:02:16.926Z,-0.60
2018-12-15T23:05:09.291Z,-0.70
2018-12-15T23:07:57.966Z,-0.70
2018-12-15T23:10:48.493Z,-0.70
2018-12-15T23:13:31.628Z,-0.70
2018-12-15T23:16:13.453Z,-0.80
2018-12-15T23:19:01.967Z,-0.80
2018-12-15T23:21:51.412Z,-0.80
2018-12-15T23:24:33.194Z,-0.90
2018-12-15T23:30:50.029Z,-0.90
2018-12-15T23:33:40.183Z,-0.90
2018-12-15T23:36:22.710Z,-1.00
2018-12-15T23:39:08.785Z,-1.00
2018-12-15T23:41:58.670Z,-1.00
2018-12-15T23:44:47.543Z,-0.90
2018-12-15T23:47:32.912Z,-0.90
